Time;durP1;ratioP1;P1;durP2;ratioP2;P2;SDS_P1;SDS_P2;PMS_P1;PMS_P2;Temp;Humidity;BMP_temperature;BMP_pressure;BME280_temperature;BME280_humidity;BME280_pressure;Samples;Min_cycle;Max_cycle;Signal;HPM_P1;HPM_P2
2021/03/01 00:01:52;;;;;;;19.85;12.75;;;;;;;7.07;52.32;100750.63;5013664;28;20056;-79
2021/03/01 00:04:17;;;;;;;18.10;11.80;;;;;;;6.91;52.10;100713.44;5014870;28;20054;-82
2021/03/01 00:06:43;;;;;;;23.63;13.95;;;;;;;6.98;51.86;100725.13;5013690;28;20121;-81
2021/03/01 00:09:08;;;;;;;18.40;12.88;;;;;;;7.10;52.08;100741.66;5014785;28;20152;-82
2021/03/01 00:11:34;;;;;;;18.90;12.43;;;;;;;6.69;51.88;100675.00;5014807;28;20109;-78
2021/03/01 00:13:59;;;;;;;19.95;12.95;;;;;;;7.01;52.15;100717.81;5014649;28;20037;-81
2021/03/01 00:16:25;;;;;;;20.33;12.68;;;;;;;6.62;52.05;100647.56;5015090;28;20034;-81
2021/03/01 00:18:51;;;;;;;22.52;14.70;;;;;;;7.07;51.87;100724.34;5013623;28;20026;-80
2021/03/01 00:21:16;;;;;;;22.25;12.90;;;;;;;6.73;52.02;100668.53;5014846;28;20037;-81
2021/03/01 00:23:41;;;;;;;23.93;13.20;;;;;;;6.66;51.58;100660.31;5013623;28;20034;-80
2021/03/01 00:26:07;;;;;;;18.63;13.15;;;;;;;6.92;51.79;100697.56;5014622;28;20030;-79
2021/03/01 00:28:32;;;;;;;23.65;13.40;;;;;;;6.82;52.05;100696.66;5021703;28;20034;-82
2021/03/01 00:30:57;;;;;;;21.38;12.68;;;;;;;6.83;52.21;100673.88;5026756;28;20034;-82
2021/03/01 00:33:23;;;;;;;21.25;13.60;;;;;;;6.86;52.05;100694.63;5017494;28;20109;-80
2021/03/01 00:35:48;;;;;;;19.92;12.90;;;;;;;6.96;52.14;100712.13;5018404;28;20427;-80
2021/03/01 00:38:14;;;;;;;19.85;13.00;;;;;;;6.95;52.22;100709.63;5018418;28;20030;-78
2021/03/01 00:40:39;;;;;;;19.85;12.55;;;;;;;6.93;51.93;100701.88;5017295;28;20057;-79
2021/03/01 00:43:05;;;;;;;22.67;13.73;;;;;;;6.93;51.81;100701.88;5018567;28;20033;-80
2021/03/01 00:45:30;;;;;;;22.60;14.57;;;;;;;6.46;52.24;100624.38;5018395;28;20116;-81
2021/03/01 00:47:55;;;;;;;23.80;14.87;;;;;;;6.61;52.26;100649.34;5031164;28;20095;-76
2021/03/01 00:50:21;;;;;;;26.45;15.95;;;;;;;6.68;52.25;100679.38;5037864;28;20025;-80
2021/03/01 00:52:46;;;;;;;39.43;21.10;;;;;;;6.72;52.62;100681.78;5037767;28;20033;-79
2021/03/01 00:55:12;;;;;;;38.10;20.60;;;;;;;6.81;52.08;100689.75;5037823;28;20091;-78
2021/03/01 00:57:38;;;;;;;36.60;20.23;;;;;;;6.74;52.68;100688.59;5037729;28;20533;-80
2021/03/01 01:00:13;;;;;;;40.57;20.70;;;;;;;6.24;52.34;100593.81;5037569;28;20053;-79
2021/03/01 01:02:39;;;;;;;35.87;19.90;;;;;;;6.72;52.67;100676.53;5037805;28;20427;-78
2021/03/01 01:05:05;;;;;;;30.07;16.17;;;;;;;6.72;52.64;100685.25;5037527;28;20029;-78
2021/03/01 01:07:31;;;;;;;30.70;17.25;;;;;;;6.40;52.69;100645.84;5020085;28;20025;-80
2021/03/01 01:09:56;;;;;;;26.43;16.13;;;;;;;6.33;52.71;100619.28;5037480;28;20109;-81
2021/03/01 01:12:22;;;;;;;23.92;14.57;;;;;;;6.51;52.62;100645.81;5037442;28;20439;-80
2021/03/01 01:14:47;;;;;;;25.77;15.93;;;;;;;6.58;52.71;100669.78;5019660;28;20029;-79
2021/03/01 01:17:13;;;;;;;23.42;14.35;;;;;;;6.49;52.38;100660.84;5037481;28;20029;-79
2021/03/01 01:19:38;;;;;;;24.23;13.93;;;;;;;6.01;52.45;100579.13;5037450;28;20034;-77
2021/03/01 01:22:03;;;;;;;21.43;12.47;;;;;;;6.66;52.53;100677.84;5037343;28;20101;-78
2021/03/01 01:24:29;;;;;;;20.97;12.60;;;;;;;6.37;52.65;100636.44;5037460;28;20343;-80
2021/03/01 01:26:54;;;;;;;22.00;14.30;;;;;;;6.58;52.68;100660.09;5037108;28;20036;-81
2021/03/01 01:29:20;;;;;;;25.27;15.93;;;;;;;6.19;52.46;100601.22;5037130;28;20026;-77
2021/03/01 01:31:45;;;;;;;28.63;16.23;;;;;;;6.57;52.92;100661.06;5019476;28;20056;-77
2021/03/01 01:34:11;;;;;;;28.00;17.40;;;;;;;6.48;52.94;100658.34;5037221;28;20499;-79
2021/03/01 01:36:37;;;;;;;30.85;18.30;;;;;;;6.43;52.76;100650.03;5045183;28;20112;-79
2021/03/01 01:39:03;;;;;;;25.50;16.83;;;;;;;6.52;53.13;100665.03;5036944;28;20064;-80
2021/03/01 01:41:29;;;;;;;27.53;17.30;;;;;;;6.47;52.63;100646.19;5036883;28;20328;-80
2021/03/01 01:43:54;;;;;;;27.17;17.30;;;;;;;6.30;52.82;100616.91;5036836;28;20120;-80
2021/03/01 01:46:19;;;;;;;23.73;15.07;;;;;;;6.23;53.22;100612.28;5019192;28;20108;-79
2021/03/01 01:48:45;;;;;;;26.20;15.93;;;;;;;5.84;53.41;100555.97;5036724;28;20033;-79
2021/03/01 01:51:10;;;;;;;29.43;16.27;;;;;;;6.31;52.98;100631.69;5036906;28;20053;-79
2021/03/01 01:53:37;;;;;;;29.13;15.40;;;;;;;6.36;53.10;100642.66;5036711;28;20025;-76
2021/03/01 01:56:02;;;;;;;27.67;16.80;;;;;;;6.24;53.22;100627.91;5036611;28;20021;-78
2021/03/01 01:58:28;;;;;;;30.60;16.40;;;;;;;5.88;53.48;100579.19;5036744;28;20395;-79
2021/03/01 02:00:54;;;;;;;35.33;18.23;;;;;;;6.02;53.11;100594.72;5036513;28;20018;-77
2021/03/01 02:03:23;;;;;;;25.30;14.97;;;;;;;6.36;53.25;100632.16;5036557;28;20022;-76
2021/03/01 02:05:51;;;;;;;24.23;14.37;;;;;;;6.33;53.18;100635.03;5036637;28;20033;-78
2021/03/01 02:08:26;;;;;;;24.00;13.60;;;;;;;6.30;53.42;100630.03;5036603;28;20032;-78
2021/03/01 02:10:57;;;;;;;25.40;14.83;;;;;;;6.35;53.51;100633.13;5036500;28;20076;-77
2021/03/01 02:13:34;;;;;;;24.70;13.87;;;;;;;6.34;53.55;100630.63;5036297;28;20025;-77
2021/03/01 02:16:18;;;;;;;23.60;14.10;;;;;;;6.27;53.64;100611.94;5036332;28;20471;-77
2021/03/01 02:18:45;;;;;;;21.97;13.90;;;;;;;6.33;53.20;100627.16;5036277;28;20039;-80
2021/03/01 02:21:12;;;;;;;28.90;14.53;;;;;;;5.88;53.64;100568.72;5018626;28;20028;-75
2021/03/01 02:23:38;;;;;;;23.67;13.70;;;;;;;6.09;53.42;100587.19;5036353;28;20017;-78
2021/03/01 02:26:10;;;;;;;23.33;14.53;;;;;;;6.26;53.13;100622.53;5036046;28;20025;-75
2021/03/01 02:28:43;;;;;;;;;;;;;;;6.17;53.69;100624.13;5019054;28;20029;-76
2021/03/01 02:31:10;;;;;;;24.17;13.53;;;;;;;6.15;53.42;100605.06;5036103;28;20347;-80
2021/03/01 02:33:48;;;;;;;25.10;13.80;;;;;;;6.14;53.34;100605.19;5035965;28;20024;-77
2021/03/01 02:36:29;;;;;;;25.53;13.13;;;;;;;6.12;53.31;100596.59;5036045;28;20104;-76
2021/03/01 02:38:58;;;;;;;27.13;16.27;;;;;;;5.98;53.26;100574.13;5018396;28;20032;-77
2021/03/01 02:41:25;;;;;;;26.27;15.63;;;;;;;5.25;53.47;100457.63;5036184;28;20325;-77
2021/03/01 02:43:52;;;;;;;28.90;17.87;;;;;;;6.17;53.31;100618.88;5018128;28;20346;-76
2021/03/01 02:46:18;;;;;;;29.47;16.23;;;;;;;5.99;53.39;100591.50;5035747;28;20025;-76
2021/03/01 02:48:45;;;;;;;31.13;17.53;;;;;;;6.08;53.62;100601.25;5035414;28;20073;-76
2021/03/01 02:51:12;;;;;;;29.43;18.07;;;;;;;6.04;53.40;100597.22;5035593;28;20021;-76
2021/03/01 02:53:39;;;;;;;31.53;16.43;;;;;;;5.87;53.66;100568.84;5035025;28;20021;-76
2021/03/01 02:56:06;;;;;;;27.87;16.83;;;;;;;5.88;53.56;100567.88;5035655;28;20028;-77
2021/03/01 02:58:35;;;;;;;24.93;15.47;;;;;;;6.06;53.61;100600.56;5037119;28;20030;-75
2021/03/01 03:01:01;;;;;;;26.13;15.70;;;;;;;6.08;53.74;100624.84;5039033;28;20044;-79
2021/03/01 03:03:28;;;;;;;24.47;13.93;;;;;;;5.46;53.37;100506.66;5018122;28;20463;-77
2021/03/01 03:05:54;;;;;;;24.27;13.57;;;;;;;5.83;53.77;100576.13;5035276;28;20021;-78
2021/03/01 03:08:20;;;;;;;26.77;15.00;;;;;;;5.85;53.37;100583.84;5035416;28;20013;-79
2021/03/01 03:10:49;;;;;;;29.00;14.93;;;;;;;5.50;53.71;100529.84;5017846;28;20172;-78
2021/03/01 03:13:16;;;;;;;25.20;15.13;;;;;;;5.41;53.66;100512.25;5035244;28;20029;-79
2021/03/01 03:15:44;;;;;;;20.73;13.13;;;;;;;5.66;53.98;100569.59;5035463;28;20060;-78
2021/03/01 03:18:13;;;;;;;26.23;14.67;;;;;;;5.41;53.61;100526.16;5035266;28;20021;-78
2021/03/01 03:20:39;;;;;;;25.73;14.30;;;;;;;5.92;53.69;100616.50;5017718;28;20112;-80
2021/03/01 03:23:06;;;;;;;19.77;11.97;;;;;;;5.88;53.65;100610.66;5035206;28;20083;-78
2021/03/01 03:25:32;;;;;;;14.37;10.60;;;;;;;5.24;53.64;100513.56;5017566;28;20060;-79
2021/03/01 03:27:57;;;;;;;16.00;10.40;;;;;;;5.24;53.63;100515.34;5035138;28;20551;-79
2021/03/01 03:30:24;;;;;;;13.13;9.60;;;;;;;5.49;53.96;100577.13;5035184;28;20390;-78
2021/03/01 03:32:51;;;;;;;14.13;9.83;;;;;;;4.77;53.62;100454.44;5035123;28;20021;-78
2021/03/01 03:35:17;;;;;;;16.30;11.17;;;;;;;5.74;53.58;100616.16;5035207;28;20107;-78
2021/03/01 03:38:13;;;;;;;20.43;13.53;;;;;;;5.25;53.60;100545.81;5035219;28;20057;-79
2021/03/01 03:40:44;;;;;;;19.23;12.83;;;;;;;5.61;53.79;100616.28;5017290;28;20095;-77
2021/03/01 03:43:11;;;;;;;17.80;11.30;;;;;;;5.53;53.81;100591.63;5036428;28;20029;-78
2021/03/01 03:45:38;;;;;;;18.07;11.30;;;;;;;5.50;53.94;100592.72;5036369;28;20100;-78
2021/03/01 03:48:05;;;;;;;15.60;10.10;;;;;;;5.61;54.04;100613.66;5035707;28;20053;-79
2021/03/01 03:50:32;;;;;;;16.23;10.33;;;;;;;5.51;53.72;100593.53;5035692;28;20021;-79
2021/03/01 03:53:17;;;;;;;15.27;10.20;;;;;;;5.58;53.78;100610.44;5036563;28;20048;-79
2021/03/01 03:55:47;;;;;;;16.33;10.50;;;;;;;5.19;53.84;100557.56;5036939;28;20091;-79
2021/03/01 03:58:18;;;;;;;18.90;13.03;;;;;;;5.53;54.03;100609.97;5039026;28;20447;-79
2021/03/01 04:00:47;;;;;;;15.10;11.57;;;;;;;5.53;53.84;100604.75;5037810;28;20029;-79
2021/03/01 04:03:14;;;;;;;14.57;10.20;;;;;;;5.43;54.12;100602.84;5053913;22;20218;-79
2021/03/01 04:05:43;;;;;;;15.33;11.77;;;;;;;5.31;53.99;100590.69;5068467;28;20490;-75
2021/03/01 04:08:11;;;;;;;14.23;11.40;;;;;;;5.37;54.17;100592.84;5064277;28;20031;-79
2021/03/01 04:10:41;;;;;;;20.27;13.37;;;;;;;5.48;54.09;100610.34;5046128;28;20033;-79
2021/03/01 04:13:12;;;;;;;24.43;16.33;;;;;;;5.46;54.05;100608.78;5045379;28;20021;-78
2021/03/01 04:15:41;;;;;;;19.70;13.23;;;;;;;5.19;54.02;100573.28;5062826;28;20025;-78
2021/03/01 04:18:08;;;;;;;16.97;12.13;;;;;;;5.42;54.27;100614.25;5063162;28;20487;-79
2021/03/01 04:20:35;;;;;;;19.23;12.93;;;;;;;5.41;54.27;100609.16;5045909;28;20029;-79
2021/03/01 04:23:02;;;;;;;17.13;12.37;;;;;;;5.31;54.29;100606.41;5063013;28;20028;-78
2021/03/01 04:25:28;;;;;;;20.40;13.60;;;;;;;5.17;54.11;100587.44;5063729;28;20424;-78
2021/03/01 04:27:53;;;;;;;16.70;12.67;;;;;;;5.39;54.35;100603.19;5045284;28;20052;-79
2021/03/01 04:30:20;;;;;;;24.57;15.97;;;;;;;5.30;54.26;100589.03;5062678;28;20031;-79
2021/03/01 04:32:47;;;;;;;23.13;16.10;;;;;;;5.36;53.95;100606.06;5069162;22;20048;-78
2021/03/01 04:35:18;;;;;;;23.03;15.17;;;;;;;5.33;54.29;100608.91;5040287;23;20117;-79
2021/03/01 04:37:44;;;;;;;20.47;15.13;;;;;;;5.15;54.19;100584.09;5024322;28;20030;-78
2021/03/01 04:40:10;;;;;;;23.70;16.03;;;;;;;5.25;54.35;100603.44;5023162;28;20029;-79
2021/03/01 04:42:37;;;;;;;25.53;17.37;;;;;;;5.32;54.53;100629.03;5042964;23;20060;-78
2021/03/01 04:45:04;;;;;;;27.37;17.10;;;;;;;5.25;54.50;100614.72;5025430;28;20108;-79
2021/03/01 04:47:30;;;;;;;26.40;17.47;;;;;;;5.39;53.92;100648.53;5041632;28;20036;-78
2021/03/01 04:49:56;;;;;;;27.23;19.00;;;;;;;5.07;54.18;100589.94;5024432;28;20030;-78
2021/03/01 04:52:23;;;;;;;26.77;17.83;;;;;;;5.36;54.47;100643.53;5042107;28;20025;-79
2021/03/01 04:54:49;;;;;;;27.70;18.70;;;;;;;5.08;54.72;100602.91;5042769;28;20025;-78
2021/03/01 04:57:16;;;;;;;85.63;49.67;;;;;;;5.26;55.01;100634.72;5043024;28;20025;-78
2021/03/01 04:59:42;;;;;;;37.43;23.20;;;;;;;4.60;54.51;100521.13;5025102;28;20033;-77
2021/03/01 05:02:09;;;;;;;27.57;17.93;;;;;;;5.28;54.44;100635.44;5041372;28;20440;-78
2021/03/01 05:04:36;;;;;;;31.13;18.27;;;;;;;4.97;55.05;100595.03;5060948;22;20061;-78
2021/03/01 05:07:03;;;;;;;29.30;19.13;;;;;;;5.15;54.79;100631.22;5062932;28;20102;-77
2021/03/01 05:09:29;;;;;;;35.27;20.50;;;;;;;5.10;54.99;100634.19;5063177;28;20100;-77
2021/03/01 05:11:54;;;;;;;34.10;21.17;;;;;;;5.04;55.39;100638.13;5063244;28;20497;-75
2021/03/01 05:14:20;;;;;;;45.70;29.00;;;;;;;5.05;55.05;100633.72;5046542;28;20397;-77
2021/03/01 05:16:45;;;;;;;49.17;28.43;;;;;;;4.85;55.28;100593.34;5059804;28;20033;-77
2021/03/01 05:19:10;;;;;;;45.93;28.90;;;;;;;5.07;55.36;100632.66;5033756;23;20065;-75
2021/03/01 05:21:36;;;;;;;51.97;30.43;;;;;;;5.05;55.23;100623.25;5021944;28;20029;-76
2021/03/01 05:24:01;;;;;;;49.30;29.10;;;;;;;5.18;55.23;100639.69;5039780;28;20024;-76
2021/03/01 05:26:28;;;;;;;52.17;29.70;;;;;;;5.16;54.91;100630.28;5039264;28;20029;-75
2021/03/01 05:28:53;;;;;;;53.07;29.93;;;;;;;5.12;55.14;100632.28;5039724;28;20025;-76
2021/03/01 05:31:19;;;;;;;46.50;28.27;;;;;;;4.58;54.81;100524.81;5022017;28;20047;-76
2021/03/01 05:33:47;;;;;;;50.10;29.97;;;;;;;5.13;54.92;100612.19;5021903;28;20021;-76
2021/03/01 05:36:13;;;;;;;53.00;29.83;;;;;;;5.32;54.96;100646.53;5039516;28;20026;-77
2021/03/01 05:38:38;;;;;;;48.33;28.97;;;;;;;5.30;54.69;100628.31;5039178;28;20025;-76
2021/03/01 05:41:04;;;;;;;48.47;29.97;;;;;;;5.32;54.73;100644.72;5039012;28;20084;-76
2021/03/01 05:43:30;;;;;;;51.07;30.23;;;;;;;5.49;54.94;100640.81;5048077;22;20093;-77
2021/03/01 05:45:59;;;;;;;52.43;32.13;;;;;;;5.26;54.86;100600.69;5040119;28;20055;-76
2021/03/01 05:48:28;;;;;;;50.60;32.47;;;;;;;5.57;54.75;100654.16;5040793;28;20056;-77
2021/03/01 05:50:56;;;;;;;57.40;34.70;;;;;;;5.46;54.52;100621.88;5057526;28;20029;-77
2021/03/01 05:53:25;;;;;;;50.40;32.70;;;;;;;5.34;54.69;100605.34;5057701;28;20321;-76
2021/03/01 05:55:52;;;;;;;48.27;30.03;;;;;;;5.59;54.88;100636.53;5053998;28;20063;-76
2021/03/01 05:58:18;;;;;;;53.20;34.37;;;;;;;5.54;54.64;100622.94;5036882;28;20033;-76
2021/03/01 06:00:45;;;;;;;58.83;37.17;;;;;;;5.57;54.90;100627.13;5037016;28;20083;-76
2021/03/01 06:03:15;;;;;;;66.93;41.40;;;;;;;5.78;54.54;100645.56;5036852;28;20390;-76
2021/03/01 06:05:42;;;;;;;79.80;48.60;;;;;;;5.45;54.61;100592.25;5036708;28;20040;-76
2021/03/01 06:08:09;;;;;;;79.93;49.10;;;;;;;5.64;54.24;100628.31;5036596;28;20119;-76
2021/03/01 06:10:34;;;;;;;87.03;52.10;;;;;;;5.87;54.23;100652.72;5036442;28;20523;-76
2021/03/01 06:13:00;;;;;;;117.70;64.47;;;;;;;5.90;54.02;100648.09;5036457;28;20046;-77
2021/03/01 06:15:26;;;;;;;92.87;52.30;;;;;;;5.90;54.06;100652.50;5037310;28;20037;-77
2021/03/01 06:18:05;;;;;;;91.20;52.70;;;;;;;5.45;54.17;100567.84;5039605;28;20029;-75
2021/03/01 06:20:30;;;;;;;83.03;49.03;;;;;;;5.99;54.04;100641.31;5039849;28;20029;-76
2021/03/01 06:22:56;;;;;;;80.43;49.77;;;;;;;5.72;53.90;100592.69;5049297;28;20040;-76
2021/03/01 06:25:24;;;;;;;78.03;44.20;;;;;;;5.90;53.74;100607.94;5036860;28;20087;-77
2021/03/01 06:27:56;;;;;;;68.90;39.60;;;;;;;6.13;53.76;100641.06;5048260;28;20028;-75
2021/03/01 06:30:23;;;;;;;62.58;37.70;;;;;;;6.19;53.66;100632.69;5036519;28;20029;-76
2021/03/01 06:33:08;;;;;;;61.00;37.33;;;;;;;5.76;53.75;100556.59;5043811;28;20694;-76
2021/03/01 06:35:39;;;;;;;60.90;37.87;;;;;;;6.35;53.64;100653.28;5009001;28;20037;-76
2021/03/01 06:38:34;;;;;;;65.93;42.77;;;;;;;6.43;53.21;100634.28;5047455;28;20112;-77
2021/03/01 06:41:15;;;;;;;65.13;43.57;;;;;;;6.42;53.05;100627.38;5050220;28;20048;-75
2021/03/01 06:43:53;;;;;;;66.53;40.40;;;;;;;6.30;53.36;100608.22;5048492;28;20111;-77
2021/03/01 06:46:20;;;;;;;78.93;47.80;;;;;;;6.53;53.24;100622.09;5048764;28;20060;-74
2021/03/01 06:48:45;;;;;;;92.40;53.60;;;;;;;6.38;52.77;100580.41;5053199;28;20028;-77
2021/03/01 06:51:10;;;;;;;86.60;50.73;;;;;;;6.14;53.09;100539.63;5037097;28;20037;-77
2021/03/01 06:53:37;;;;;;;80.53;50.27;;;;;;;6.40;52.86;100540.09;5040720;28;20368;-76
2021/03/01 06:56:08;;;;;;;83.13;50.80;;;;;;;6.73;52.90;100586.34;5055451;28;20112;-78
2021/03/01 06:58:45;;;;;;;77.47;47.43;;;;;;;6.55;52.67;100549.31;5043167;28;20033;-75
2021/03/01 07:01:15;;;;;;;72.73;44.30;;;;;;;6.98;52.90;100604.34;5035267;28;20036;-75
2021/03/01 07:03:46;;;;;;;68.43;42.50;;;;;;;7.07;52.53;100602.72;5037889;28;20029;-75
2021/03/01 07:06:12;;;;;;;63.07;39.67;;;;;;;7.17;52.50;100601.00;5050979;28;20347;-75
2021/03/01 07:08:39;;;;;;;70.47;41.93;;;;;;;7.07;52.21;100560.72;5017804;28;20060;-79
2021/03/01 07:11:24;;;;;;;63.23;36.47;;;;;;;7.17;51.70;100554.53;5044462;28;20052;-77
2021/03/01 07:13:50;;;;;;;49.13;33.47;;;;;;;7.16;51.53;100538.91;5053405;28;20030;-75
2021/03/01 07:16:21;;;;;;;;;;;;;;;7.45;52.11;100588.97;5029116;28;20045;-75
2021/03/01 07:18:48;;;;;;;44.63;29.87;;;;;;;7.47;51.82;100576.53;5034903;28;19913;-73
2021/03/01 07:21:15;;;;;;;41.30;21.50;;;;;;;7.21;51.21;100505.22;5048537;28;20486;-75
2021/03/01 07:23:45;;;;;;;35.13;21.52;;;;;;;7.42;50.50;100540.13;5055039;28;20054;-74
2021/03/01 07:26:14;;;;;;;30.38;19.02;;;;;;;7.92;50.36;100587.47;5054925;28;20029;-74
2021/03/01 07:28:42;;;;;;;26.00;16.97;;;;;;;7.89;49.82;100579.84;5041972;28;20059;-76
2021/03/01 07:31:09;;;;;;;22.92;16.40;;;;;;;7.41;49.64;100495.59;5049324;28;20074;-76
2021/03/01 07:33:36;;;;;;;30.15;18.15;;;;;;;8.05;49.67;100589.84;5030296;28;20090;-76
2021/03/01 07:36:03;;;;;;;26.43;17.37;;;;;;;7.70;49.24;100538.56;5052223;28;20025;-76
2021/03/01 07:38:29;;;;;;;23.33;15.17;;;;;;;7.75;48.96;100557.41;5052645;28;20029;-77
2021/03/01 07:40:55;;;;;;;23.00;14.63;;;;;;;7.64;49.14;100550.44;5050434;28;20048;-77
2021/03/01 07:43:22;;;;;;;17.73;12.88;;;;;;;7.71;49.06;100539.41;5051886;28;20064;-76
2021/03/01 07:45:48;;;;;;;23.58;14.02;;;;;;;7.98;49.33;100586.91;5051539;28;20029;-77
2021/03/01 07:48:15;;;;;;;22.80;13.10;;;;;;;8.02;48.72;100579.59;5034626;28;20033;-77
2021/03/01 07:50:45;;;;;;;14.95;11.30;;;;;;;8.26;48.28;100601.09;5054329;28;20443;-76
2021/03/01 07:53:42;;;;;;;14.48;11.45;;;;;;;8.33;48.43;100598.75;5052813;28;20154;-77
2021/03/01 07:56:23;;;;;;;16.60;10.98;;;;;;;8.44;48.44;100603.91;5052940;28;20117;-76
2021/03/01 07:59:02;;;;;;;20.42;10.80;;;;;;;8.54;48.33;100594.22;5050828;28;20431;-76
2021/03/01 08:01:29;;;;;;;17.08;10.65;;;;;;;8.48;48.07;100568.44;5051970;28;20059;-77
2021/03/01 08:03:58;;;;;;;14.73;10.35;;;;;;;8.76;47.52;100595.72;5031978;28;20030;-77
2021/03/01 08:06:24;;;;;;;13.07;8.20;;;;;;;8.87;47.29;100603.47;5048404;28;20045;-79
2021/03/01 08:08:52;;;;;;;12.32;8.13;;;;;;;8.91;46.79;100592.50;5049480;28;20031;-76
2021/03/01 08:11:42;;;;;;;15.73;9.80;;;;;;;9.00;45.37;100608.47;5052048;28;20029;-77
2021/03/01 08:14:12;;;;;;;14.98;9.77;;;;;;;9.11;46.45;100613.56;5050452;28;20374;-76
2021/03/01 08:16:38;;;;;;;15.43;9.52;;;;;;;9.16;46.34;100617.44;5053277;28;20033;-76
2021/03/01 08:19:05;;;;;;;15.70;9.77;;;;;;;8.91;46.26;100581.97;5052052;28;20037;-76
2021/03/01 08:22:02;;;;;;;13.25;9.15;;;;;;;9.20;45.48;100620.59;5054177;28;20027;-77
2021/03/01 08:24:51;;;;;;;13.65;9.43;;;;;;;9.02;45.93;100575.72;5033038;28;20032;-78
2021/03/01 08:27:25;;;;;;;14.68;10.00;;;;;;;9.38;45.55;100624.16;5032819;28;20060;-76
2021/03/01 08:30:17;;;;;;;12.23;8.85;;;;;;;9.38;44.09;100618.06;5047024;28;20031;-76
2021/03/01 08:32:42;;;;;;;14.90;10.23;;;;;;;9.17;45.92;100582.22;5051232;28;20025;-77
2021/03/01 08:35:21;;;;;;;12.35;8.75;;;;;;;9.45;44.42;100611.25;5051746;28;20031;-81
2021/03/01 08:37:47;;;;;;;15.23;8.93;;;;;;;8.94;45.11;100530.84;5049550;28;20379;-79
2021/03/01 08:40:23;;;;;;;12.40;9.38;;;;;;;9.40;44.63;100590.59;5032223;28;20036;-76
2021/03/01 08:43:02;;;;;;;18.75;10.57;;;;;;;9.39;43.42;100572.28;5050547;28;20111;-76
2021/03/01 08:45:30;;;;;;;16.60;10.65;;;;;;;9.67;44.69;100605.63;5036601;22;20108;-75
2021/03/01 08:48:01;;;;;;;19.67;11.55;;;;;;;9.77;44.44;100602.94;5057667;22;20053;-78
2021/03/01 08:50:30;;;;;;;16.80;12.13;;;;;;;9.73;44.05;100594.47;5034775;22;20458;-75
2021/03/01 08:52:56;;;;;;;12.85;9.25;;;;;;;9.45;44.01;100558.50;5037006;28;20040;-77
2021/03/01 08:55:22;;;;;;;17.95;11.45;;;;;;;9.77;43.79;100582.66;5019977;28;20029;-76
2021/03/01 08:58:01;;;;;;;14.50;10.95;;;;;;;9.96;43.84;100589.63;5019826;28;20033;-78
2021/03/01 09:00:29;;;;;;;14.45;10.38;;;;;;;9.91;43.16;100575.22;5018983;28;20060;-79
2021/03/01 09:03:11;;;;;;;15.77;11.15;;;;;;;10.02;43.06;100572.38;5029632;28;20024;-82
2021/03/01 09:05:37;;;;;;;19.48;11.95;;;;;;;9.77;43.45;100526.44;5026559;28;20061;-80
2021/03/01 09:08:03;;;;;;;17.48;10.38;;;;;;;9.77;43.47;100493.00;5021567;28;20057;-75
2021/03/01 09:10:36;;;;;;;15.43;10.45;;;;;;;9.99;42.35;100535.75;5039196;28;20032;-77
2021/03/01 09:13:03;;;;;;;14.55;9.63;;;;;;;10.28;43.42;100580.41;5055213;28;20055;-77
2021/03/01 09:15:29;;;;;;;18.38;10.10;;;;;;;10.10;42.99;100548.72;5023518;28;20040;-76
2021/03/01 09:17:54;;;;;;;15.40;10.25;;;;;;;10.37;42.60;100588.25;5042577;28;20024;-76
2021/03/01 09:20:20;;;;;;;13.25;9.52;;;;;;;10.52;42.64;100596.50;5035582;28;20033;-79
2021/03/01 09:22:46;;;;;;;13.73;9.57;;;;;;;10.51;42.28;100568.44;5038724;28;20029;-77
2021/03/01 09:25:28;;;;;;;11.98;8.60;;;;;;;10.71;40.70;100577.84;5017681;28;20104;-79
2021/03/01 09:27:53;;;;;;;13.13;9.00;;;;;;;10.31;41.45;100501.75;5019176;28;20052;-79
2021/03/01 09:30:21;;;;;;;13.45;9.95;;;;;;;10.86;41.11;100564.91;5035644;28;20068;-80
2021/03/01 09:33:06;;;;;;;13.60;9.50;;;;;;;11.25;41.32;100586.47;5019737;28;20025;-77
2021/03/01 09:35:34;;;;;;;16.45;9.20;;;;;;;11.13;42.07;100537.47;5037902;28;20034;-80
2021/03/01 09:38:04;;;;;;;14.57;9.93;;;;;;;11.63;41.47;100595.75;5036584;28;20021;-77
2021/03/01 09:40:29;;;;;;;12.23;8.82;;;;;;;11.74;40.77;100587.53;5037007;28;20037;-80
2021/03/01 09:43:04;;;;;;;13.38;9.60;;;;;;;11.74;40.86;100576.13;5046545;28;20131;-79
2021/03/01 09:45:35;;;;;;;12.65;9.35;;;;;;;11.96;40.62;100578.22;5035870;28;20043;-76
2021/03/01 09:48:05;;;;;;;15.85;9.50;;;;;;;11.58;40.69;100489.59;5044011;28;20048;-80
2021/03/01 09:50:32;;;;;;;12.73;9.00;;;;;;;11.86;39.16;100489.34;5032907;28;20037;-78
2021/03/01 09:52:58;;;;;;;11.85;8.77;;;;;;;12.46;39.94;100574.66;5021241;28;20037;-82
2021/03/01 09:55:24;;;;;;;13.95;8.32;;;;;;;12.58;39.18;100580.47;5033699;28;20494;-79
2021/03/01 09:57:50;;;;;;;11.57;8.55;;;;;;;12.70;39.56;100579.16;5034597;28;20053;-80
2021/03/01 10:00:20;;;;;;;15.10;9.20;;;;;;;12.57;39.12;100553.13;5018728;28;20080;-78
2021/03/01 10:03:01;;;;;;;11.10;8.50;;;;;;;12.88;37.82;100587.75;5034730;28;20053;-78
2021/03/01 10:05:28;;;;;;;12.18;8.88;;;;;;;12.59;38.02;100560.91;5039625;28;20447;-78
2021/03/01 10:08:00;;;;;;;13.07;8.63;;;;;;;12.67;38.83;100580.31;5017751;28;20032;-78
2021/03/01 10:10:33;;;;;;;13.77;8.63;;;;;;;12.29;37.72;100527.97;5036572;28;20037;-80
2021/03/01 10:12:59;;;;;;;10.90;8.40;;;;;;;12.33;39.47;100553.97;5037994;28;20428;-79
2021/03/01 10:15:25;;;;;;;13.88;8.80;;;;;;;12.68;38.77;100581.16;5042618;28;20458;-78
2021/03/01 10:18:08;;;;;;;10.70;7.90;;;;;;;12.86;37.65;100575.66;5033138;28;20025;-78
2021/03/01 10:20:46;;;;;;;12.15;7.78;;;;;;;11.87;36.87;100440.72;5035393;28;20022;-78
2021/03/01 10:23:11;;;;;;;10.07;7.18;;;;;;;12.20;38.04;100494.53;5029656;28;20108;-78
2021/03/01 10:25:40;;;;;;;10.55;7.53;;;;;;;12.47;37.85;100562.25;5033180;28;20117;-77
2021/03/01 10:28:07;;;;;;;11.10;8.27;;;;;;;12.18;37.69;100491.22;5021212;28;20040;-89
2021/03/01 10:30:33;;;;;;;12.95;7.30;;;;;;;12.86;36.98;100539.38;5014405;28;20105;-78
2021/03/01 10:33:04;;;;;;;9.38;7.03;;;;;;;12.98;37.05;100543.34;5033446;28;20036;-78
2021/03/01 10:35:29;;;;;;;8.68;6.35;;;;;;;12.96;36.51;100563.06;5035682;28;20074;-79
2021/03/01 10:38:06;;;;;;;9.95;7.13;;;;;;;12.64;35.90;100508.28;5040369;28;20108;-79
2021/03/01 10:40:31;;;;;;;9.93;6.05;;;;;;;12.81;36.40;100523.16;5016953;28;20052;-78
2021/03/01 10:42:57;;;;;;;9.40;6.22;;;;;;;12.89;35.72;100547.00;5021805;28;20428;-77
2021/03/01 10:45:24;;;;;;;8.40;6.45;;;;;;;12.87;35.77;100554.28;5033747;28;20026;-76
2021/03/01 10:48:00;;;;;;;12.02;7.03;;;;;;;12.80;34.87;100549.84;5029732;28;20040;-77
2021/03/01 10:50:25;;;;;;;11.23;7.03;;;;;;;12.69;35.64;100538.59;5012270;28;20025;-77
2021/03/01 10:52:50;;;;;;;12.88;9.25;;;;;;;12.53;35.35;100519.19;5036876;28;20032;-76
2021/03/01 10:55:16;;;;;;;12.20;8.63;;;;;;;12.76;35.09;100546.69;5055064;28;20029;-76
2021/03/01 10:57:41;;;;;;;11.25;7.10;;;;;;;12.19;35.03;100448.72;5037472;28;20064;-77
2021/03/01 11:00:07;;;;;;;9.60;6.80;;;;;;;12.62;34.11;100507.59;5037186;28;20427;-79
2021/03/01 11:02:33;;;;;;;9.32;6.35;;;;;;;12.72;34.05;100516.22;5037244;28;20064;-77
2021/03/01 11:04:58;;;;;;;12.45;7.65;;;;;;;12.87;34.55;100535.75;5034073;28;20049;-78
2021/03/01 11:07:26;;;;;;;7.63;5.90;;;;;;;12.98;34.52;100540.69;5016875;28;20351;-78
2021/03/01 11:09:51;;;;;;;6.63;5.25;;;;;;;13.09;34.63;100523.59;5034732;28;20414;-82
2021/03/01 11:12:17;;;;;;;9.70;7.05;;;;;;;13.26;34.22;100522.56;5035215;28;20034;-80
2021/03/01 11:14:42;;;;;;;11.02;7.90;;;;;;;13.34;34.80;100516.41;5034147;28;20056;-78
2021/03/01 11:17:08;;;;;;;10.13;7.75;;;;;;;13.54;33.88;100519.50;5034875;28;20067;-83
2021/03/01 11:19:34;;;;;;;13.18;9.02;;;;;;;13.32;33.65;100454.75;5016241;28;20416;-79
2021/03/01 11:21:59;;;;;;;9.95;6.25;;;;;;;13.73;33.00;100535.00;5033770;28;20029;-84
2021/03/01 11:24:25;;;;;;;9.88;6.55;;;;;;;13.72;33.04;100485.56;5016211;28;20037;-83
2021/03/01 11:26:51;;;;;;;8.20;5.63;;;;;;;13.94;33.03;100527.22;5017558;28;20030;-76